Grand Forks, ND (58201)

10:03 PM CDT on August 23, 2016 (GMT -0500)
APRSWXNET | | Change Station

Elev 846 ft 47.89 °N, 97.16 °W | Updated 30 minutes ago

Scattered Clouds
Scattered Clouds
73 °F
Feels Like 72 °F
N
2
Wind Variable Wind from West
Gusts 5.0 mph

Today
High -- | Low -- °F
--% Chance of Precip.
Yesterday
High -- | Low -- °F
Precip. -- in
Pressure 29.73 in
Visibility 10.0 miles
Clouds Scattered Clouds 6000 ft
Scattered Clouds 10000 ft
Heat Index 72 °F
Dew Point 68 °F
Humidity 85%
Rainfall in
Snow Depth Not available.
6:34 AM 8:25 PM
Waning Gibbous, 62% visible
METAR KGFK 240253Z 26004KT 10SM SCT060 SCT100 22/19 A2973 RMK AO2 SLP065 60000 T02170194 53023
Pressure 29.73 in
Visibility 10.0 miles
Clouds Scattered Clouds 6000 ft
Scattered Clouds 10000 ft
Heat Index 72 °F
Dew Point 68 °F
Humidity 85%
Rainfall in
Snow Depth Not available.
6:34 AM 8:25 PM
Waning Gibbous, 62% visible
METAR KGFK 240253Z 26004KT 10SM SCT060 SCT100 22/19 A2973 RMK AO2 SLP065 60000 T02170194 53023

10-Day Weather Forecast

Almanac

Astronomy

Aug. 23, 2016 Rise Set
Actual Time
Civil Twilight
Nautical Twilight
Astronomical Twilight
Moon
Length of Visible Light
Length of Day
Tomorrow will be .
, % of the Moon is Illuminated

Today's Extremes

State Highs State Lows

Community

WunderPhotos

Upload Photos

1,934,538 photos uploaded!

WunderBlog® & News

Nearby

Air Quality

  Air Quality AQ Index Pollutant
Not available.

Snow Depth

Station Depth Elevation

Earthquake Activity

City Distance Mag. Time & Date
Minimum magnitude displayed is 2.5.

Coastal Water Temperatures

Place Temperature

Stations

Nearby Weather Stations

Station Location Temp. Windchill Dew Point Humidity Wind Precip. Elev Updated Type
                   

Watches & Warnings

There are currently no watches in effect.